createdAt,value
2017-11-18T00:01:15.956Z,116.20
2017-11-18T00:03:45.143Z,109.43
2017-11-18T00:09:15.005Z,107.83
2017-11-18T00:11:50.431Z,124.10
2017-11-18T00:14:18.623Z,122.27
2017-11-18T00:16:54.580Z,143.63
2017-11-18T00:19:22.764Z,119.90
2017-11-18T00:21:57.796Z,124.37
2017-11-18T00:24:32.003Z,143.77
2017-11-18T00:27:05.819Z,129.10
2017-11-18T00:29:33.922Z,146.13
2017-11-18T00:32:13.724Z,151.23
2017-11-18T00:34:43.911Z,144.50
2017-11-18T00:37:13.064Z,132.10
2017-11-18T00:39:41.139Z,137.73
2017-11-18T00:42:26.523Z,147.10
2017-11-18T00:45:01.257Z,151.10
2017-11-18T00:47:33.914Z,146.13
2017-11-18T00:50:02.048Z,155.50
2017-11-18T00:52:30.172Z,131.10
2017-11-18T00:55:02.317Z,152.53
2017-11-18T01:00:25.508Z,124.87
2017-11-18T01:02:57.272Z,174.90
2017-11-18T01:05:43.657Z,168.97
2017-11-18T01:08:15.507Z,132.20
2017-11-18T01:10:57.096Z,134.00
2017-11-18T01:13:25.284Z,129.73
2017-11-18T01:18:47.940Z,146.27
2017-11-18T01:21:30.573Z,119.93
2017-11-18T01:23:59.797Z,133.67
2017-11-18T01:26:29.981Z,134.57
2017-11-18T01:29:02.708Z,145.10
2017-11-18T01:31:30.882Z,130.53
2017-11-18T01:36:58.299Z,140.03
2017-11-18T01:39:37.092Z,146.77
2017-11-18T01:42:05.219Z,129.77
2017-11-18T01:47:35.864Z,123.90
2017-11-18T01:50:07.627Z,156.27
2017-11-18T01:52:35.870Z,140.90
2017-11-18T01:55:04.084Z,146.40
2017-11-18T02:00:20.784Z,158.53
2017-11-18T02:02:48.883Z,124.93
2017-11-18T02:05:17.073Z,135.57
2017-11-18T02:07:58.779Z,129.83
2017-11-18T02:10:30.584Z,123.70
2017-11-18T02:12:58.671Z,132.27
2017-11-18T02:15:30.534Z,122.97
2017-11-18T02:18:05.877Z,151.20
2017-11-18T02:20:37.336Z,122.90
2017-11-18T02:23:18.782Z,132.80
2017-11-18T02:25:54.627Z,143.73
2017-11-18T02:28:29.068Z,144.10
2017-11-18T02:30:57.285Z,129.37
2017-11-18T02:33:40.172Z,117.27
2017-11-18T02:36:08.292Z,115.43
2017-11-18T02:38:54.438Z,117.93
2017-11-18T02:41:29.984Z,133.20
2017-11-18T02:44:06.558Z,106.93
2017-11-18T02:46:34.658Z,143.33
2017-11-18T02:49:09.436Z,131.77
2017-11-18T02:51:42.540Z,112.57
2017-11-18T02:54:17.468Z,140.53
2017-11-18T02:56:49.154Z,135.33
2017-11-18T03:02:15.579Z,147.13
2017-11-18T03:04:51.217Z,127.90
2017-11-18T03:07:20.617Z,138.77
2017-11-18T03:09:48.832Z,126.60
2017-11-18T03:12:34.886Z,134.50
2017-11-18T03:15:03.075Z,134.37
2017-11-18T03:17:46.183Z,145.73
2017-11-18T03:20:15.883Z,138.90
2017-11-18T03:22:47.421Z,122.93
2017-11-18T03:25:19.021Z,132.60
2017-11-18T03:27:47.111Z,113.67
2017-11-18T03:30:23.673Z,125.83
2017-11-18T03:32:56.573Z,134.97
2017-11-18T03:38:14.631Z,104.40
2017-11-18T03:40:50.051Z,103.53
2017-11-18T03:43:28.651Z,93.57
2017-11-18T03:45:56.890Z,84.20
2017-11-18T03:48:38.541Z,91.57
2017-11-18T03:51:07.770Z,76.73
2017-11-18T03:53:35.901Z,91.13
2017-11-18T03:56:17.071Z,66.13
2017-11-18T03:58:53.656Z,76.17
2017-11-18T04:01:32.272Z,87.57
2017-11-18T04:04:08.016Z,76.27
2017-11-18T04:06:43.876Z,58.93
2017-11-18T04:09:12.077Z,65.37
2017-11-18T04:11:40.189Z,71.83
2017-11-18T04:14:12.427Z,67.70
2017-11-18T04:16:53.875Z,58.17
2017-11-18T04:19:26.002Z,94.20
2017-11-18T04:21:57.624Z,69.47
2017-11-18T04:24:38.977Z,77.23
2017-11-18T04:27:07.088Z,77.33
2017-11-18T04:29:35.195Z,84.67
2017-11-18T04:32:10.474Z,71.97
2017-11-18T04:34:55.935Z,67.73
2017-11-18T04:37:24.063Z,79.77
2017-11-18T04:40:00.071Z,84.70
2017-11-18T04:42:28.284Z,80.90
2017-11-18T04:45:04.984Z,66.40
2017-11-18T04:47:40.497Z,66.97
2017-11-18T04:53:05.543Z,54.90
2017-11-18T04:58:28.570Z,64.20
2017-11-18T05:01:08.123Z,72.83
2017-11-18T05:06:24.226Z,64.63
2017-11-18T05:09:06.617Z,53.53
2017-11-18T05:11:34.691Z,49.97
2017-11-18T05:14:20.782Z,58.63
2017-11-18T05:19:51.219Z,55.70
2017-11-18T05:22:20.455Z,48.30
2017-11-18T05:24:52.807Z,47.23
2017-11-18T05:27:22.936Z,42.43
2017-11-18T05:32:39.108Z,50.30
2017-11-18T05:35:07.383Z,50.00
2017-11-18T05:37:35.629Z,50.50
2017-11-18T05:40:07.448Z,44.03
2017-11-18T05:45:28.303Z,44.93
2017-11-18T05:48:04.599Z,66.83
2017-11-18T05:50:39.035Z,52.40
2017-11-18T05:53:07.114Z,50.97
2017-11-18T05:58:26.462Z,54.70
2017-11-18T06:03:52.728Z,52.87
2017-11-18T06:06:38.081Z,45.10
2017-11-18T06:09:19.579Z,35.47
2017-11-18T06:14:52.777Z,42.93
2017-11-18T06:17:26.366Z,44.47
2017-11-18T06:20:07.157Z,49.83
2017-11-18T06:22:42.669Z,46.20
2017-11-18T06:25:09.228Z,47.23
2017-11-18T06:27:45.504Z,47.93
2017-11-18T06:30:33.432Z,46.53
2017-11-18T06:33:13.056Z,40.27
2017-11-18T06:35:41.244Z,39.53
2017-11-18T06:38:07.372Z,34.57
2017-11-18T06:40:33.503Z,40.57
2017-11-18T06:43:22.304Z,61.77
2017-11-18T06:45:56.876Z,40.53
2017-11-18T06:48:23.008Z,42.97
2017-11-18T06:50:49.156Z,53.03
2017-11-18T06:53:15.948Z,44.53
2017-11-18T06:58:35.176Z,40.90
2017-11-18T07:01:12.885Z,50.67
2017-11-18T07:03:47.616Z,44.10
2017-11-18T07:06:30.196Z,42.70
2017-11-18T07:09:06.780Z,36.13
2017-11-18T07:11:37.323Z,41.40
2017-11-18T07:14:10.587Z,35.07
2017-11-18T07:16:44.007Z,34.37
2017-11-18T07:19:17.484Z,35.30
2017-11-18T07:21:43.680Z,49.97
2017-11-18T07:24:27.266Z,62.47
2017-11-18T07:26:59.747Z,40.70
2017-11-18T07:29:25.765Z,44.43
2017-11-18T07:31:51.901Z,50.87
2017-11-18T07:34:24.079Z,48.90
2017-11-18T07:39:47.445Z,50.57
2017-11-18T07:45:06.867Z,57.67
2017-11-18T07:47:32.957Z,46.57
2017-11-18T07:49:59.124Z,41.43
2017-11-18T07:52:34.726Z,46.37
2017-11-18T07:55:00.860Z,34.10
2017-11-18T07:57:42.044Z,31.53
2017-11-18T08:02:58.665Z,41.70
2017-11-18T08:05:24.696Z,23.27
2017-11-18T08:07:58.180Z,30.90
2017-11-18T08:10:38.440Z,26.33
2017-11-18T08:13:08.962Z,32.23
2017-11-18T08:18:42.881Z,32.03
2017-11-18T08:21:09.016Z,48.67
2017-11-18T08:23:35.216Z,35.00
2017-11-18T08:26:01.382Z,39.83
2017-11-18T08:28:28.168Z,34.93
2017-11-18T08:30:58.903Z,44.33
2017-11-18T08:33:39.024Z,40.30
2017-11-18T08:36:23.983Z,38.17
2017-11-18T08:39:01.155Z,43.17
2017-11-18T08:44:01.860Z,40.30
2017-11-18T08:46:27.984Z,33.53
2017-11-18T08:49:02.465Z,40.13
2017-11-18T08:51:32.856Z,62.80
2017-11-18T08:54:05.292Z,40.23
2017-11-18T08:56:32.084Z,40.87
2017-11-18T08:59:00.251Z,40.43
2017-11-18T09:01:26.284Z,51.77
2017-11-18T09:04:00.992Z,42.37
2017-11-18T09:06:34.562Z,48.87
2017-11-18T09:09:00.692Z,43.03
2017-11-18T09:11:39.619Z,49.97
2017-11-18T09:14:28.054Z,39.97
2017-11-18T09:16:54.233Z,41.63
2017-11-18T09:19:20.260Z,36.00
2017-11-18T09:21:50.045Z,31.37
2017-11-18T09:24:19.454Z,42.87
2017-11-18T09:26:56.208Z,42.27
2017-11-18T09:29:22.462Z,59.60
2017-11-18T09:31:50.333Z,42.13
2017-11-18T09:34:18.477Z,36.30
2017-11-18T09:36:54.776Z,41.93
2017-11-18T09:39:33.520Z,48.87
2017-11-18T09:42:01.692Z,44.77
2017-11-18T09:44:42.767Z,45.67
2017-11-18T09:47:14.432Z,43.87
2017-11-18T09:49:43.808Z,45.57
2017-11-18T09:52:09.948Z,46.33
2017-11-18T09:54:43.456Z,44.30
2017-11-18T09:57:17.262Z,59.10
2017-11-18T09:59:52.920Z,39.57
2017-11-18T10:02:20.773Z,49.13
2017-11-18T10:04:47.639Z,56.17
2017-11-18T10:07:26.724Z,45.70
2017-11-18T10:09:52.880Z,39.23
2017-11-18T10:12:26.123Z,37.53
2017-11-18T10:14:55.600Z,35.37
2017-11-18T10:17:28.880Z,35.27
2017-11-18T10:19:55.688Z,25.43
2017-11-18T10:22:23.854Z,32.30
2017-11-18T10:24:49.900Z,23.20
2017-11-18T10:27:19.865Z,37.97
2017-11-18T10:29:47.740Z,36.00
2017-11-18T10:32:33.284Z,19.07
2017-11-18T10:34:59.346Z,30.90
2017-11-18T10:37:26.633Z,26.77
2017-11-18T10:39:54.861Z,21.70
2017-11-18T10:42:41.964Z,31.90
2017-11-18T10:45:11.708Z,23.73
2017-11-18T10:47:52.763Z,23.90
2017-11-18T10:50:34.421Z,24.97
2017-11-18T10:53:18.376Z,23.23
2017-11-18T10:56:02.631Z,22.93
2017-11-18T10:58:35.373Z,19.00
2017-11-18T11:01:02.311Z,25.27
2017-11-18T11:03:43.112Z,17.50
2017-11-18T11:06:23.711Z,17.67
2017-11-18T11:08:53.361Z,24.27
2017-11-18T11:11:29.890Z,25.00
2017-11-18T11:14:02.697Z,18.63
2017-11-18T11:16:49.988Z,28.47
2017-11-18T11:19:33.723Z,21.63
2017-11-18T11:22:09.020Z,33.33
2017-11-18T11:24:38.498Z,16.77
2017-11-18T11:27:09.732Z,20.03
2017-11-18T11:29:35.900Z,9.57
2017-11-18T11:32:06.598Z,17.23
2017-11-18T11:34:53.856Z,12.83
2017-11-18T11:37:28.528Z,13.30
2017-11-18T11:39:59.476Z,11.63
2017-11-18T11:42:32.307Z,17.90
2017-11-18T11:45:11.121Z,19.13
2017-11-18T11:47:41.546Z,17.03
2017-11-18T11:50:12.005Z,17.17
2017-11-18T11:52:40.447Z,19.03
2017-11-18T11:55:11.320Z,14.63
2017-11-18T11:57:37.925Z,25.07
2017-11-18T12:00:04.024Z,11.07
2017-11-18T12:02:31.209Z,24.00
2017-11-18T12:04:59.033Z,12.43
2017-11-18T12:07:32.049Z,9.77
2017-11-18T12:10:01.532Z,17.53
2017-11-18T12:12:32.645Z,16.50
2017-11-18T12:15:13.724Z,15.40
2017-11-18T12:17:43.408Z,8.27
2017-11-18T12:20:34.889Z,6.80
2017-11-18T12:23:00.917Z,13.70
2017-11-18T12:25:33.471Z,6.17
2017-11-18T12:28:08.257Z,16.37
2017-11-18T12:30:39.621Z,10.33
2017-11-18T12:33:07.001Z,7.90
2017-11-18T12:35:35.082Z,8.47
2017-11-18T12:38:03.186Z,15.40
2017-11-18T12:40:46.748Z,10.30
2017-11-18T12:43:14.066Z,8.17
2017-11-18T12:46:01.851Z,5.93
2017-11-18T12:48:35.925Z,9.50
2017-11-18T12:51:06.753Z,7.60
2017-11-18T12:53:42.138Z,6.13
2017-11-18T12:56:15.631Z,15.10
2017-11-18T12:58:45.452Z,14.73
2017-11-18T13:01:26.711Z,8.70
2017-11-18T13:04:04.506Z,18.73
2017-11-18T13:06:36.569Z,17.27
2017-11-18T13:09:08.856Z,18.60
2017-11-18T13:14:42.675Z,12.43
2017-11-18T13:17:17.314Z,11.23
2017-11-18T13:19:59.371Z,10.53
2017-11-18T13:22:27.951Z,8.57
2017-11-18T13:25:05.651Z,13.50
2017-11-18T13:27:44.532Z,5.57
2017-11-18T13:33:17.914Z,12.20
2017-11-18T13:35:49.321Z,13.30
2017-11-18T13:38:19.665Z,12.10
2017-11-18T13:40:47.549Z,13.10
2017-11-18T13:43:18.433Z,11.40
2017-11-18T13:45:59.421Z,13.43
2017-11-18T13:48:31.350Z,11.30
2017-11-18T13:50:57.852Z,11.83
2017-11-18T13:53:29.408Z,17.70
2017-11-18T13:55:56.296Z,7.70
2017-11-18T13:58:29.360Z,14.50
2017-11-18T14:00:59.785Z,17.47
2017-11-18T14:03:29.731Z,16.90
2017-11-18T14:05:56.852Z,15.60
2017-11-18T14:08:28.268Z,19.33
2017-11-18T14:11:00.742Z,6.97
2017-11-18T14:13:27.841Z,18.80
2017-11-18T14:16:02.346Z,20.23
2017-11-18T14:18:30.332Z,19.57
2017-11-18T14:21:04.714Z,13.57
2017-11-18T14:23:32.829Z,20.07
2017-11-18T14:25:58.910Z,15.53
2017-11-18T14:28:25.116Z,12.90
2017-11-18T14:30:53.279Z,14.17
2017-11-18T14:33:29.940Z,7.07
2017-11-18T14:36:10.149Z,14.70
2017-11-18T14:38:36.224Z,12.57
2017-11-18T14:41:05.523Z,13.57
2017-11-18T14:43:31.712Z,8.40
2017-11-18T14:46:00.865Z,18.03
2017-11-18T14:48:42.722Z,15.00
2017-11-18T14:51:19.320Z,12.50
2017-11-18T14:54:00.891Z,13.30
2017-11-18T14:56:32.527Z,12.73
2017-11-18T14:59:05.960Z,9.80
2017-11-18T15:01:39.467Z,9.00
2017-11-18T15:04:07.690Z,11.00
2017-11-18T15:06:33.897Z,10.57
2017-11-18T15:09:01.023Z,8.03
2017-11-18T15:11:33.797Z,10.40
2017-11-18T15:14:21.388Z,8.63
2017-11-18T15:17:01.199Z,13.40
2017-11-18T15:19:35.528Z,8.40
2017-11-18T15:22:13.920Z,7.60
2017-11-18T15:24:59.382Z,13.63
2017-11-18T15:27:34.923Z,10.90
2017-11-18T15:30:31.223Z,11.33
2017-11-18T15:33:01.058Z,10.13
2017-11-18T15:35:45.876Z,3.97
2017-11-18T15:38:22.095Z,12.90
2017-11-18T15:40:51.268Z,15.77
2017-11-18T15:43:19.227Z,6.90
2017-11-18T15:45:55.592Z,7.00
2017-11-18T15:48:28.540Z,8.60
2017-11-18T15:51:01.383Z,8.03
2017-11-18T15:53:38.676Z,5.80
2017-11-18T15:56:10.893Z,13.77
2017-11-18T15:58:42.120Z,9.87
2017-11-18T16:01:42.783Z,11.17
2017-11-18T16:04:17.872Z,9.10
2017-11-18T16:06:47.030Z,5.33
2017-11-18T16:09:13.913Z,7.10
2017-11-18T16:11:41.079Z,7.10
2017-11-18T16:14:21.253Z,13.77
2017-11-18T16:16:47.311Z,6.53
2017-11-18T16:19:31.567Z,7.10
2017-11-18T16:21:58.427Z,5.90
2017-11-18T16:24:24.540Z,11.30
2017-11-18T16:26:51.387Z,5.33
2017-11-18T16:29:34.253Z,7.40
2017-11-18T16:32:00.352Z,6.70
2017-11-18T16:34:31.156Z,4.10
2017-11-18T16:36:57.237Z,9.70
2017-11-18T16:39:29.416Z,7.70
2017-11-18T16:42:02.640Z,11.60
2017-11-18T16:44:31.275Z,8.50
2017-11-18T16:46:58.392Z,5.23
2017-11-18T16:49:35.190Z,10.80
2017-11-18T16:52:03.089Z,12.03
2017-11-18T16:54:32.460Z,5.63
2017-11-18T16:56:59.302Z,23.63
2017-11-18T16:59:25.332Z,12.90
2017-11-18T17:02:05.256Z,10.23
2017-11-18T17:04:31.472Z,16.23
2017-11-18T17:06:58.591Z,9.73
2017-11-18T17:09:25.376Z,12.33
2017-11-18T17:12:07.136Z,9.70
2017-11-18T17:14:41.528Z,12.13
2017-11-18T17:17:16.180Z,4.87
2017-11-18T17:19:42.256Z,7.57
2017-11-18T17:22:09.327Z,7.50
2017-11-18T17:24:36.421Z,30.33
2017-11-18T17:27:10.373Z,7.97
2017-11-18T17:29:36.555Z,7.73
2017-11-18T17:32:07.044Z,10.63
2017-11-18T17:34:33.198Z,11.13
2017-11-18T17:37:13.947Z,6.43
2017-11-18T17:39:50.524Z,13.10
2017-11-18T17:42:16.586Z,8.30
2017-11-18T17:44:48.537Z,6.33
2017-11-18T17:47:15.368Z,6.93
2017-11-18T17:49:42.248Z,4.23
2017-11-18T17:52:23.579Z,4.33
2017-11-18T17:54:49.789Z,5.80
2017-11-18T17:57:20.598Z,3.77
2017-11-18T17:59:46.657Z,4.13
2017-11-18T18:02:15.928Z,3.40
2017-11-18T18:04:41.981Z,6.60
2017-11-18T18:07:08.063Z,8.70
2017-11-18T18:09:35.201Z,5.47
2017-11-18T18:12:01.360Z,6.10
2017-11-18T18:14:36.919Z,8.30
2017-11-18T18:17:03.709Z,7.80
2017-11-18T18:19:38.384Z,15.23
2017-11-18T18:22:05.332Z,2.90
2017-11-18T18:24:36.901Z,9.87
2017-11-18T18:27:11.488Z,6.20
2017-11-18T18:29:37.697Z,8.77
2017-11-18T18:32:04.788Z,3.90
2017-11-18T18:37:03.379Z,6.40
2017-11-18T18:39:29.548Z,13.43
2017-11-18T18:41:57.464Z,7.77
2017-11-18T18:44:24.630Z,6.77
2017-11-18T18:46:57.021Z,4.43
2017-11-18T18:49:23.163Z,5.47
2017-11-18T18:54:54.416Z,4.23
2017-11-18T18:57:25.144Z,5.13
2017-11-18T18:59:51.172Z,7.83
2017-11-18T19:02:19.274Z,3.57
2017-11-18T19:05:04.116Z,4.83
2017-11-18T19:07:30.147Z,9.47
2017-11-18T19:10:02.542Z,7.13
2017-11-18T19:15:26.044Z,15.17
2017-11-18T19:18:06.986Z,13.73
2017-11-18T19:20:40.660Z,8.93
2017-11-18T19:23:06.877Z,6.27
2017-11-18T19:28:30.025Z,4.77
2017-11-18T19:31:01.738Z,10.47
2017-11-18T19:33:39.391Z,5.07
2017-11-18T19:36:09.373Z,7.30
2017-11-18T19:38:52.778Z,8.80
2017-11-18T19:41:19.575Z,8.43
2017-11-18T19:46:50.233Z,9.13
2017-11-18T19:49:30.638Z,7.60
2017-11-18T19:52:00.708Z,6.27
2017-11-18T19:54:37.772Z,12.57
2017-11-18T19:57:14.696Z,5.17
2017-11-18T19:59:48.097Z,6.30
2017-11-18T20:02:27.653Z,9.67
2017-11-18T20:04:58.899Z,10.47
2017-11-18T20:07:46.080Z,6.60
2017-11-18T20:10:12.221Z,7.43
2017-11-18T20:12:40.299Z,9.60
2017-11-18T20:15:06.498Z,8.17
2017-11-18T20:17:57.674Z,11.50
2017-11-18T20:20:37.740Z,6.10
2017-11-18T20:23:10.964Z,17.00
2017-11-18T20:25:37.262Z,11.97
2017-11-18T20:28:07.003Z,14.07
2017-11-18T20:30:48.465Z,8.03
2017-11-18T20:33:17.980Z,13.97
2017-11-18T20:35:55.135Z,7.53
2017-11-18T20:38:25.463Z,9.03
2017-11-18T20:41:05.789Z,14.33
2017-11-18T20:43:33.754Z,10.50
